Latest Weather Observations for PORTABLE RFSNSW09

IDN60801

Issued at 12:42 pm EDT Thursday 21 November 2019 (issued every 10 minutes, with the page automatically refreshed every 10 minutes)

About weather observations | Map of weather stations | Latest weather observations for NSW | Other Formats
Station Details ID: 250063 Name: PORTABLE RFSNSW09 Lat: -31.81 Lon: 151.59 Height: 953.0 m

Portable automatic weather stations (PAWS) are operated by other organisations, such as Fire and Emergency Services, and are included here by agreement. Portable stations may be deployed to a location for a short period and their location may be subject to change without notice. Wind observations from these stations are provided from heights of either three (3) or ten (10) metres above ground level (AGL).

Data from the previous 72 hours. | See also: Recent months for locations in New South Wales
Date/Time
EDT
Temp
°C
App
Temp
°C
Dew
Point
°C
Rel
Hum
%
Delta-T
°C
Wind Press
QNH
hPa
Press
MSL
hPa
Rain since
9am
mm
Dir  Spd
km/h
Gust
km/h
Spd
kts
Gust
kts
21/12:30pm 31.3 25.8 4.0 17 14.7 NNW 22 26 12 14 - - 0.0
21/12:20pm 30.8 24.4 3.0 17 14.7 NNW 26 32 14 17 - - 0.0
21/12:10pm 30.6 24.3 3.6 18 14.4 NNW 26 32 14 17 - - 0.0
21/12:00pm 29.9 23.6 3.7 19 13.9 NW 26 35 14 19 - - 0.0
21/11:50am 30.3 24.2 5.0 20 13.8 NNW 26 32 14 17 - - 0.0
21/11:40am 29.3 22.6 5.6 22 13.0 NW 30 32 16 17 - - 0.0
21/11:30am 28.6 21.5 5.5 23 12.6 WNW 32 35 17 19 - - 0.0
21/11:20am 28.3 21.4 6.3 24 12.1 NW 32 35 17 19 - - 0.0
21/11:10am 27.9 21.0 6.4 25 11.8 WNW 32 39 17 21 - - 0.0
21/11:00am 27.7 20.8 6.5 26 11.7 NW 32 39 17 21 - - 0.0
21/10:50am 27.3 20.5 6.8 27 11.3 NW 32 39 17 21 - - 0.0
21/10:40am 27.0 20.0 6.1 26 11.4 WNW 32 43 17 23 - - 0.0
21/10:30am - - 5.4 - - WNW 32 39 17 21 - - 0.0
21/10:20am - - 5.8 - - NW 32 39 17 21 - - 0.0
21/10:10am - - 5.7 - - NW 26 32 14 17 - - 0.0
21/10:00am - - 8.8 - - NNW 19 22 10 12 - - 0.0
21/09:50am - - 8.3 - - NW 22 26 12 14 - - 0.0
21/09:40am - - 8.8 - - NW 15 19 8 10 - - 0.0
21/09:30am - - 9.0 - - NNW 15 22 8 12 - - 0.0
21/09:20am - - 8.2 - - NNW 19 22 10 12 - - 0.0
21/09:10am - - 8.0 - - NW 15 19 8 10 - - 0.0
21/09:00am - - 9.6 - - NNW 15 15 8 8 - - 0.0
21/08:50am - - 8.9 - - NNW 7 15 4 8 - - 0.0
21/08:40am - - 9.9 - - NW 7 11 4 6 - - 0.0
21/08:30am - - 10.5 - - NW 11 15 6 8 - - 0.0
21/08:20am - - 9.8 - - W 7 15 4 8 - - 0.0
21/08:10am - - 10.7 - - NNE 7 15 4 8 - - 0.0
21/08:00am - - 7.5 - - SE 11 15 6 8 - - 0.0
21/07:50am - - 11.2 - - N 7 11 4 6 - - 0.0
21/07:40am - - 11.0 - - N 4 7 2 4 - - 0.0
21/07:30am - - 11.0 - - SSW 4 7 2 4 - - 0.0
21/07:20am - - 9.0 - - SW 4 7 2 4 - - 0.0
21/07:10am - - 9.9 - - WNW 4 7 2 4 - - 0.0
21/07:00am - - 9.4 - - SSW 4 7 2 4 - - 0.0
21/06:50am - - 9.1 - - SSW 7 11 4 6 - - 0.0
21/06:40am - - 9.5 - - S 11 11 6 6 - - 0.0
21/06:30am - - 10.1 - - S 11 11 6 6 - - 0.0
21/06:20am - - 10.8 - - SSE 7 11 4 6 - - 0.0
21/06:10am - - 10.5 - - W 7 15 4 8 - - 0.0
21/06:00am - - 10.7 - - WSW 11 15 6 8 - - 0.0
21/05:50am - - 11.2 - - WSW 15 19 8 10 - - 0.0
21/05:40am - - 11.2 - - WNW 7 11 4 6 - - 0.0
21/05:30am - - 11.4 - - NW 11 15 6 8 - - 0.0
21/05:20am - - 11.4 - - W 11 15 6 8 - - 0.0
21/04:30am 14.3 13.7 12.3 88 1.1 WSW 7 11 4 6 - - 0.0
21/04:20am 14.3 13.0 12.5 89 1.0 W 11 15 6 8 - - 0.0
21/04:10am 14.2 13.6 12.2 88 1.1 WSW 7 11 4 6 - - 0.0
21/04:00am 14.1 14.0 12.1 88 1.1 S 4 11 2 6 - - 0.0
21/03:50am 13.8 13.2 12.2 90 0.9 SSW 7 11 4 6 - - 0.0
21/03:40am 13.9 13.4 12.7 92 0.7 S 7 15 4 8 - - 0.0
21/03:30am 13.9 14.0 12.8 93 0.6 S 4 11 2 6 - - 0.0
21/03:20am 13.9 13.5 13.0 94 0.5 SSW 7 11 4 6 - - 0.0
21/03:10am 13.9 13.5 13.0 94 0.5 SSW 7 11 4 6 - - 0.0
21/03:00am 14.0 13.6 13.1 94 0.5 SW 7 7 4 4 - - 0.0
21/02:50am 14.1 14.3 13.1 94 0.6 N 4 7 2 4 - - 0.0
21/02:40am 14.1 14.3 12.9 92 0.7 NE 4 7 2 4 - - 0.0
21/02:30am 14.2 14.4 13.2 94 0.6 S 4 4 2 2 - - 0.0
21/02:20am 14.3 14.5 13.2 93 0.6 SSE 4 7 2 4 - - 0.0
21/02:10am 14.2 13.9 13.2 94 0.6 SE 7 7 4 4 - - 0.0
21/02:00am 14.1 14.3 13.2 94 0.5 SSE 4 7 2 4 - - 0.0
21/01:50am 14.1 13.7 13.1 94 0.6 SE 7 11 4 6 - - 0.0
21/01:40am 14.1 14.3 13.0 93 0.6 SE 4 7 2 4 - - 0.0
21/01:30am 14.1 14.3 12.9 92 0.7 SE 4 7 2 4 - - 0.0
21/01:20am 14.0 13.7 13.2 95 0.5 SE 7 11 4 6 - - 0.0
21/01:10am 14.0 13.7 13.4 96 0.3 SE 7 11 4 6 - - 0.0
21/01:00am 14.2 13.2 13.4 95 0.5 SE 11 11 6 6 - - 0.0
21/12:50am 14.4 13.4 13.5 94 0.5 SE 11 11 6 6 - - 0.0
21/12:40am 14.7 13.7 13.5 92 0.7 ESE 11 15 6 8 - - 0.0
21/12:30am 15.1 14.9 13.5 90 0.9 ESE 7 15 4 8 - - 0.0
21/12:20am 15.2 15.0 13.5 89 1.0 - 7 11 4 6 - - 0.0
21/12:10am 15.3 14.4 13.6 90 1.0 ESE 11 15 6 8 - - 0.0
21/12:00am 15.4 13.7 13.5 88 1.1 ESE 15 19 8 10 - - 0.0
 
Date/Time
EDT
Temp
°C
App
Temp
°C
Dew
Point
°C
Rel
Hum
%
Delta-T
°C
Wind Press
QNH
hPa
Press
MSL
hPa
Rain since
9am
mm
Dir  Spd
km/h
Gust
km/h
Spd
kts
Gust
kts
20/11:50pm 15.4 12.9 13.4 88 1.2 ESE 19 22 10 12 - - 0.0
20/11:40pm 15.5 14.5 13.3 87 1.3 ESE 11 11 6 6 - - 0.0
20/11:30pm 15.4 14.3 13.2 87 1.3 ESE 11 15 6 8 - - 0.0
20/11:20pm 15.4 13.6 13.2 87 1.3 ESE 15 15 8 8 - - 0.0
20/11:10pm 15.3 13.5 13.4 88 1.1 SE 15 19 8 10 - - 0.0
20/11:00pm 15.3 12.8 13.6 90 1.0 SE 19 19 10 10 - - 0.0
20/10:50pm 15.4 12.9 13.6 89 1.1 ESE 19 22 10 12 - - 0.0
20/10:40pm 15.6 14.7 13.7 88 1.1 E 11 19 6 10 - - 0.0
20/10:30pm 15.6 14.7 13.6 88 1.2 E 11 15 6 8 - - 0.0
20/10:20pm 15.7 14.7 13.4 86 1.3 E 11 15 6 8 - - 0.0
20/10:10pm 15.7 14.7 13.5 87 1.3 - 11 11 6 6 - - 0.0
20/10:00pm 15.8 14.9 13.6 87 1.3 E 11 15 6 8 - - 0.0
20/09:50pm 15.9 15.0 13.6 86 1.4 E 11 15 6 8 - - 0.0
20/09:40pm 16.0 15.0 13.5 85 1.5 E 11 11 6 6 - - 0.0
20/09:30pm 16.0 15.0 13.5 85 1.5 ESE 11 15 6 8 - - 0.0
20/09:20pm 15.9 15.6 13.4 85 1.5 E 7 15 4 8 - - 0.0
20/09:10pm 15.7 13.9 13.4 86 1.3 E 15 19 8 10 - - 0.0
20/09:00pm 15.6 13.8 13.3 86 1.3 E 15 15 8 8 - - 0.0
20/08:50pm 15.7 14.6 13.1 84 1.5 ESE 11 11 6 6 - - 0.0
20/08:40pm 16.0 14.1 13.1 83 1.7 E 15 15 8 8 - - 0.0
20/08:30pm 16.3 14.4 13.1 81 1.9 - 15 19 8 10 - - 0.0
20/08:20pm 16.6 14.7 13.0 79 2.1 E 15 22 8 12 - - 0.0
20/08:10pm 16.9 15.0 13.1 78 2.2 E 15 19 8 10 - - 0.0
20/08:00pm 17.3 15.3 12.8 75 2.6 E 15 22 8 12 - - 0.0
20/07:50pm 17.6 14.9 12.8 73 2.8 ESE 19 22 10 12 - - 0.0
20/07:40pm 17.9 14.5 12.6 71 3.1 ESE 22 26 12 14 - - 0.0
20/07:30pm 18.3 14.9 12.4 68 3.4 ESE 22 30 12 16 - - 0.0
20/07:20pm 18.8 15.3 12.3 66 3.8 ESE 22 30 12 16 - - 0.0
20/07:10pm 19.4 15.2 12.4 64 4.1 ESE 26 26 14 14 - - 0.0
20/07:00pm 20.0 16.5 12.3 61 4.5 ESE 22 30 12 16 - - 0.0
20/06:50pm 20.4 16.1 12.1 59 4.9 ESE 26 32 14 17 - - 0.0
20/06:40pm 20.9 16.6 12.1 57 5.2 ESE 26 32 14 17 - - 0.0
20/06:30pm 21.4 17.1 12.0 55 5.5 ESE 26 30 14 16 - - 0.0
20/06:20pm 21.6 17.3 11.9 54 5.7 ESE 26 30 14 16 - - 0.0
20/06:10pm 21.8 16.7 11.9 53 5.8 ESE 30 32 16 17 - - 0.0
20/06:00pm 22.1 16.6 11.9 52 6.0 ESE 32 39 17 21 - - 0.0
20/05:50pm 23.0 18.7 11.9 49 6.5 ESE 26 32 14 17 - - 0.0
20/05:40pm 23.3 18.9 11.8 48 6.8 ESE 26 35 14 19 - - 0.0
20/05:30pm 23.5 18.3 11.7 47 6.9 ESE 30 32 16 17 - - 0.0
20/05:20pm 24.0 18.7 11.4 45 7.4 ESE 30 32 16 17 - - 0.0
20/05:10pm 24.0 18.7 11.4 45 7.4 ESE 30 32 16 17 - - 0.0
20/05:00pm 24.2 18.5 11.1 43 7.7 ESE 32 35 17 19 - - 0.0
20/04:50pm 24.4 18.7 11.1 43 7.8 ESE 32 39 17 21 - - 0.0
20/04:40pm 24.9 19.6 11.1 42 8.1 ESE 30 32 16 17 - - 0.0
20/04:30pm 25.3 20.7 10.9 40 8.4 E 26 32 14 17 - - 0.0
20/04:20pm 25.3 19.8 10.6 39 8.6 ESE 30 35 16 19 - - 0.0
20/04:10pm 25.7 20.3 11.0 39 8.6 ESE 30 35 16 19 - - 0.0
20/04:00pm 25.9 21.2 10.6 38 8.9 ESE 26 35 14 19 - - 0.0
20/03:50pm 25.7 20.0 11.0 39 8.6 ESE 32 39 17 21 - - 0.0
20/03:40pm 26.3 21.6 10.7 37 9.1 ESE 26 35 14 19 - - 0.0
20/03:30pm 26.6 22.7 10.9 37 9.2 E 22 35 12 19 - - 0.0
20/03:20pm 26.0 20.5 10.7 38 9.0 ESE 30 32 16 17 - - 0.0
20/03:10pm 26.3 20.8 10.7 37 9.1 ESE 30 32 16 17 - - 0.0
20/03:00pm 26.4 20.8 10.3 36 9.4 ESE 30 39 16 21 - - 0.0
20/02:50pm 26.8 22.0 10.4 35 9.6 ESE 26 32 14 17 - - 0.0
20/02:40pm 27.7 24.5 11.3 36 9.8 E 19 26 10 14 - - 0.0
20/02:30pm 27.8 24.5 11.0 35 10.0 E 19 32 10 17 - - 0.0
20/02:20pm 28.0 25.5 11.0 34 10.1 E 15 22 8 12 - - 0.0
20/02:10pm 27.6 24.4 11.4 36 9.7 E 19 22 10 12 - - 0.0
20/02:00pm 27.5 25.2 11.7 37 9.5 E 15 19 8 10 - - 0.0
20/01:50pm 26.3 23.1 11.4 39 8.8 E 19 32 10 17 - - 0.0
20/01:40pm 26.0 22.3 11.5 40 8.6 ESE 22 30 12 16 - - 0.0
20/01:30pm 26.6 24.3 11.7 39 8.9 E 15 26 8 14 - - 0.0
20/01:20pm 27.0 23.9 11.6 38 9.2 ENE 19 19 10 10 - - 0.0
20/01:10pm 26.9 23.8 11.7 38 9.1 E 19 30 10 16 - - 0.0
20/01:00pm 27.0 24.7 11.8 38 9.1 ENE 15 19 8 10 - - 0.0
20/12:50pm 26.0 23.7 11.9 41 8.4 E 15 22 8 12 - - 0.0
20/12:40pm 25.7 23.5 12.0 42 8.2 ENE 15 22 8 12 - - 0.0
20/12:30pm 25.8 23.5 11.7 41 8.4 E 15 22 8 12 - - 0.0
20/12:20pm 25.9 23.6 11.9 41 8.4 E 15 19 8 10 - - 0.0
20/12:10pm 25.0 22.6 11.4 42 8.0 E 15 26 8 14 - - 0.0
20/12:00pm 23.8 19.5 12.0 47 7.0 ESE 26 35 14 19 - - 0.0
20/11:50am 24.5 21.5 12.1 46 7.4 ESE 19 30 10 16 - - 0.0
20/11:40am 24.5 21.4 11.7 44 7.6 E 19 30 10 16 - - 0.0
20/11:30am 24.5 22.2 11.6 44 7.6 E 15 19 8 10 - - 0.0
20/11:20am 24.2 21.9 11.7 45 7.4 E 15 19 8 10 - - 0.0
20/11:10am 24.3 22.7 11.4 44 7.6 E 11 22 6 12 - - 0.0
20/11:00am 23.6 21.2 11.4 46 7.1 ENE 15 19 8 10 - - 0.0
20/10:50am 23.3 21.0 11.7 48 6.8 E 15 19 8 10 - - 0.0
20/10:40am 23.2 20.8 11.5 47 6.9 E 15 19 8 10 - - 0.0
20/10:30am 22.6 20.2 11.4 49 6.5 E 15 22 8 12 - - 0.0
20/10:20am 22.3 20.0 11.8 51 6.2 ENE 15 19 8 10 - - 0.0
20/10:10am 22.6 20.2 11.5 49 6.5 E 15 19 8 10 - - 0.0
20/10:00am 22.1 19.6 11.2 50 6.3 E 15 19 8 10 - - 0.0
20/09:50am 21.5 - 11.3 52 5.9 - - - - - - - 0.0
20/09:40am 20.8 - 11.5 55 5.4 - - - - - - - 0.0
20/09:30am 20.1 - 10.9 55 5.3 - - - - - - - 0.0
20/09:20am 19.6 - 10.7 56 5.1 - - - - - - - 0.0
20/09:00am 18.6 - 10.9 61 4.4 - - - - - - - 0.0
20/08:50am 18.1 - 10.8 62 4.1 - - - - - - - 0.0
20/08:40am 17.7 - 10.6 63 4.0 - - - - - - - 0.0
20/08:30am 17.6 - 10.1 61 4.2 - - - - - - - 0.0
20/08:20am 17.3 - 9.5 60 4.3 - - - - - - - 0.0
20/08:10am 17.0 - 9.8 62 4.0 - - - - - - - 0.0
20/08:00am 16.6 - 10.2 66 3.5 - - - - - - - 0.0
20/07:50am 16.3 - 10.2 67 3.4 - - - - - - - 0.0
20/07:40am 16.1 - 9.4 64 3.6 - - - - - - - 0.0
20/07:30am 15.7 - 10.6 71 2.8 - - - - - - - 0.0
20/07:20am 15.3 - 10.1 71 2.9 - - - - - - - 0.0
20/07:10am 14.7 - 9.9 73 2.6 - - - - - - - 0.0
20/07:00am 14.4 - 9.7 73 2.5 - - - - - - - 0.0
20/06:50am 13.8 - 8.1 68 3.0 - - - - - - - 0.0
20/06:40am 13.2 - 10.0 81 1.7 - - - - - - - 0.0
20/06:30am 12.9 - 10.2 84 1.5 - - - - - - - 0.0
20/06:20am 12.7 - 8.1 73 2.4 - - - - - - - 0.0
20/06:10am 12.7 - 6.4 65 3.2 - - - - - - - 0.0
20/06:00am 12.7 - 8.0 73 2.4 - - - - - - - 0.0
20/05:50am 12.9 - 7.1 68 3.0 - - - - - - - 0.0
20/05:40am 13.1 - 6.5 64 3.3 - - - - - - - 0.0
20/05:30am 13.4 - 6.5 63 3.5 - - - - - - - 0.0
20/05:20am 13.5 - 6.1 61 3.7 - - - - - - - 0.0
20/05:10am 13.8 - 4.5 53 4.5 - - - - - - - 0.0
20/05:00am 14.3 - 3.5 48 5.2 - - - - - - - 0.0
20/04:50am 14.8 - 2.3 43 5.8 - - - - - - - 0.0
20/04:40am 15.1 - 2.0 41 6.1 - - - - - - - 0.0
20/04:30am 15.5 - 0.6 36 6.8 - - - - - - - 0.0
20/04:20am 15.8 - 0.3 35 7.0 - - - - - - - 0.0
20/04:10am 16.1 - 0.2 34 7.2 - - - - - - - 0.0
20/04:00am 16.3 - 0.0 33 7.4 - - - - - - - 0.0
20/03:50am 16.3 - -0.1 32 7.4 - - - - - - - 0.0
20/03:40am 16.7 - 0.0 32 7.6 - - - - - - - 0.0
20/03:30am 17.3 - -0.6 29 8.1 - - - - - - - 0.0
20/03:20am 18.0 - -0.6 28 8.4 - - - - - - - 0.0
20/03:10am 18.4 - -0.7 27 8.7 - - - - - - - 0.0
20/03:00am 19.2 - -0.9 25 9.1 - - - - - - - 0.0
20/02:50am 20.4 - -1.3 23 9.9 - - - - - - - 0.0
20/02:40am 21.1 - -1.7 21 10.4 - - - - - - - 0.0
 
Date/Time
EDT
Temp
°C
App
Temp
°C
Dew
Point
°C
Rel
Hum
%
Delta-T
°C
Wind Press
QNH
hPa
Press
MSL
hPa
Rain since
9am
mm
Dir  Spd
km/h
Gust
km/h
Spd
kts
Gust
kts
19/02:10pm 29.8 - -3.0 11 15.6 - - - - - - - 0.0
19/02:00pm 29.9 - -2.5 12 15.5 - - - - - - - 0.0
19/01:50pm 29.2 - -2.8 12 15.2 - - - - - - - 0.0
19/01:40pm 29.2 - -2.8 12 15.2 - - - - - - - 0.0
19/01:30pm 29.4 - -3.5 11 15.4 - - - - - - - 0.0
19/01:20pm 28.7 - -3.0 12 14.9 - - - - - - - 0.0
19/01:10pm 28.4 - -2.9 13 14.7 - - - - - - - 0.0
19/01:00pm 28.6 - -2.7 13 14.8 - - - - - - - 0.0
19/12:50pm 29.1 - -2.3 13 15.0 - - - - - - - 0.0
19/12:40pm 28.7 - -2.4 13 14.8 - - - - - - - 0.0
19/12:30pm 28.3 - -1.7 14 14.4 - - - - - - - 0.0
19/12:20pm 28.8 - -2.1 13 14.8 - - - - - - - 0.0
19/12:10pm 28.1 - -2.0 14 14.3 - - - - - - - 0.0
19/12:00pm 28.2 - -1.3 14 14.2 - - - - - - - 0.0
19/11:50am 28.3 - -1.5 14 14.3 - - - - - - - 0.0
19/11:40am 27.9 - -1.4 14 14.1 - - - - - - - 0.0
19/11:30am 27.9 - -1.1 15 14.0 - - - - - - - 0.0
19/11:20am 27.3 - -1.1 15 13.7 - - - - - - - 0.0
19/11:10am 27.4 - -1.3 15 13.8 - - - - - - - 0.0
19/11:00am 27.3 - -1.7 15 13.8 - - - - - - - 0.0
19/10:50am 27.0 - -1.0 16 13.5 - - - - - - - 0.0
19/10:40am 27.3 - -1.6 15 13.8 - - - - - - - 0.0
19/10:30am 26.1 - -1.2 16 13.0 - - - - - - - 0.0
19/10:20am 26.2 - -1.5 16 13.1 - - - - - - - 0.0
19/10:10am 25.9 - -1.7 16 13.0 - - - - - - - 0.0
19/10:00am 25.5 - -1.6 16 12.8 - - - - - - - 0.0
19/09:50am 24.7 - -1.4 17 12.3 - - - - - - - 0.0
19/09:40am 24.7 - -1.5 17 12.3 - - - - - - - 0.0
19/09:30am 24.5 - -1.7 17 12.2 - - - - - - - 0.0
19/09:20am 24.1 - -1.5 18 12.0 - - - - - - - 0.0
19/09:10am 23.6 - -1.7 18 11.7 - - - - - - - 0.0
19/09:00am 23.7 - -1.4 19 11.7 - - - - - - - 0.0
19/08:50am 23.4 - -1.7 19 11.6 - - - - - - - 0.0
19/08:40am 23.3 - -1.7 19 11.6 - - - - - - - 0.0
19/08:30am 22.9 - -1.8 19 11.4 - - - - - - - 0.0
19/08:20am 22.4 - -1.8 20 11.1 - - - - - - - 0.0
19/08:10am 22.0 - -2.2 19 11.0 - - - - - - - 0.0
19/08:00am 21.5 - -2.3 20 10.7 - - - - - - - 0.0
19/07:50am 21.4 - -2.2 20 10.6 - - - - - - - 0.0
19/07:40am 21.1 - -2.4 20 10.5 - - - - - - - 0.0
19/07:30am 20.7 - -2.4 21 10.3 - - - - - - - 0.0
19/07:20am 20.4 - -2.4 21 10.2 - - - - - - - 0.0
19/07:10am 20.1 - -2.4 22 10.0 - - - - - - - 0.0
19/07:00am 19.9 - -2.4 22 9.9 - - - - - - - 0.0
19/06:50am 19.7 - -2.4 22 9.8 - - - - - - - 0.0
19/06:40am 19.5 - -2.6 22 9.7 - - - - - - - 0.0
19/06:30am 19.2 - -2.6 22 9.6 - - - - - - - 0.0
19/06:20am 18.9 - -2.7 23 9.4 - - - - - - - 0.0
19/06:10am 18.7 - -2.7 23 9.3 - - - - - - - 0.0
19/06:00am 18.5 - -2.9 23 9.3 - - - - - - - 0.0
19/05:50am 18.3 - -2.9 23 9.2 - - - - - - - 0.0
19/05:40am 18.3 - -2.9 23 9.2 - - - - - - - 0.0
19/05:30am 18.1 - -2.8 24 9.0 - - - - - - - 0.0
19/05:20am 17.5 - -3.0 24 8.8 - - - - - - - 0.0
19/05:10am 16.9 - -2.4 26 8.3 - - - - - - - 0.0
19/05:00am 17.2 - -2.4 26 8.5 - - - - - - - 0.0
19/04:50am 17.1 - -2.4 26 8.4 - - - - - - - 0.0
19/04:40am 17.1 - -1.6 28 8.2 - - - - - - - 0.0
19/04:30am 17.1 - -1.8 27 8.3 - - - - - - - 0.0
19/04:20am 17.4 - -1.9 27 8.5 - - - - - - - 0.0
19/04:10am 17.4 - -1.7 27 8.4 - - - - - - - 0.0
19/04:00am 17.4 - -1.6 27 8.4 - - - - - - - 0.0
19/03:50am 17.5 - -1.6 27 8.4 - - - - - - - 0.0
19/03:40am 17.3 - -1.1 28 8.2 - - - - - - - 0.0
19/03:30am 17.3 - -0.6 29 8.1 - - - - - - - 0.0
19/03:20am 17.2 - -0.1 31 7.9 - - - - - - - 0.0
19/03:10am 17.1 - 0.2 32 7.7 - - - - - - - 0.0
19/03:00am 17.4 - 0.6 32 7.8 - - - - - - - 0.0
19/02:50am 17.8 - 0.4 31 8.0 - - - - - - - 0.0
19/02:40am 18.0 - 0.3 30 8.2 - - - - - - - 0.0
19/02:30am 18.0 - 0.5 30 8.1 - - - - - - - 0.0
19/02:20am 17.8 - 0.5 31 8.0 - - - - - - - 0.0
19/02:10am 17.7 - 0.9 32 7.8 - - - - - - - 0.0
19/02:00am 17.8 - 2.2 35 7.5 - - - - - - - 0.0
19/01:50am 17.9 - 0.9 32 7.9 - - - - - - - 0.0
19/01:40am 18.0 - 2.7 36 7.4 - - - - - - - 0.0
19/01:30am 18.2 - 2.6 35 7.5 - - - - - - - 0.0
19/01:20am 17.9 - 2.5 35 7.4 - - - - - - - 0.0
19/01:10am 18.1 - 2.7 35 7.5 - - - - - - - 0.0
19/01:00am 18.0 - 2.0 34 7.6 - - - - - - - 0.0
19/12:50am 18.0 - 1.7 33 7.7 - - - - - - - 0.0
19/12:40am 18.0 - 1.6 33 7.8 - - - - - - - 0.0
19/12:30am 18.0 - 1.8 33 7.7 - - - - - - - 0.0
19/12:20am 18.0 - 2.9 36 7.3 - - - - - - - 0.0
19/12:10am 17.8 - 2.9 37 7.2 - - - - - - - 0.0
19/12:00am 17.6 - 4.1 40 6.7 - - - - - - - 0.0
 
Date/Time
EDT
Temp
°C
App
Temp
°C
Dew
Point
°C
Rel
Hum
%
Delta-T
°C
Wind Press
QNH
hPa
Press
MSL
hPa
Rain since
9am
mm
Dir  Spd
km/h
Gust
km/h
Spd
kts
Gust
kts
18/11:50pm 17.5 - 3.3 38 6.9 - - - - - - - 0.0
18/11:40pm 17.6 - 7.4 51 5.4 - - - - - - - 0.0
18/11:30pm 18.1 - 7.4 49 5.7 - - - - - - - 0.0
18/11:20pm 18.3 - 5.8 44 6.4 - - - - - - - 0.0
18/11:10pm 18.4 - 3.2 36 7.4 - - - - - - - 0.0
18/11:00pm 17.9 - 5.9 45 6.2 - - - - - - - 0.0
18/10:50pm 17.8 - 7.2 50 5.6 - - - - - - - 0.0
18/10:40pm 17.7 - 8.6 55 4.9 - - - - - - - 0.0
18/10:30pm 17.8 - 9.0 56 4.8 - - - - - - - 0.0
18/10:20pm 18.1 - 9.1 55 4.9 - - - - - - - 0.0
18/10:10pm 18.1 - 9.2 56 4.9 - - - - - - - 0.0
18/10:00pm 18.3 - 9.2 55 5.0 - - - - - - - 0.0
18/09:50pm 18.3 - 9.2 55 5.0 - - - - - - - 0.0
18/09:40pm 18.2 - 9.4 56 4.8 - - - - - - - 0.0
18/09:30pm 18.0 - 9.6 58 4.6 - - - - - - - 0.0
18/09:20pm 17.9 - 9.6 58 4.6 - - - - - - - 0.0
18/09:10pm 17.8 - 9.5 58 4.6 - - - - - - - 0.0
18/09:00pm 17.8 - 9.7 59 4.5 - - - - - - - 0.0
18/08:50pm 17.9 - 9.7 58 4.5 - - - - - - - 0.0
18/08:40pm 18.0 - 9.7 58 4.6 - - - - - - - 0.0
18/08:30pm 18.2 - 9.6 57 4.8 - - - - - - - 0.0
18/08:20pm 18.4 - 9.5 56 4.9 - - - - - - - 0.0
18/08:10pm 18.6 - 9.5 55 5.0 - - - - - - - 0.0
18/08:00pm 18.7 - 9.4 54 5.1 - - - - - - - 0.0
18/07:50pm 19.0 - 9.2 53 5.4 - - - - - - - 0.0
18/07:40pm 19.3 - 9.2 52 5.6 - - - - - - - 0.0
18/07:30pm 19.8 - 8.6 48 6.1 - - - - - - - 0.0
18/07:20pm 20.5 - 7.9 44 6.8 - - - - - - - 0.0
18/07:10pm 21.8 - 7.7 40 7.7 - - - - - - - 0.0
18/07:00pm 22.7 - -0.5 21 10.9 - - - - - - - 0.0
18/06:50pm 23.1 - -0.4 21 11.1 - - - - - - - 0.0
18/06:40pm 23.4 - -0.6 20 11.3 - - - - - - - 0.0
18/06:30pm 23.9 - -1.0 19 11.7 - - - - - - - 0.0
18/06:20pm 24.0 - -1.1 19 11.8 - - - - - - - 0.0
18/06:10pm 24.4 - -1.3 18 12.1 - - - - - - - 0.0
18/06:00pm 25.1 - -1.9 16 12.6 - - - - - - - 0.0
18/05:50pm 25.0 - -0.3 19 12.2 - - - - - - - 0.0
18/05:40pm 24.8 - 0.9 21 11.7 - - - - - - - 0.0
18/05:30pm 25.1 - 0.9 20 11.9 - - - - - - - 0.0
18/05:20pm 25.4 - 1.2 20 12.0 - - - - - - - 0.0
18/05:10pm 25.7 - 1.3 20 12.1 - - - - - - - 0.0
18/05:00pm 25.5 - 1.5 21 12.0 - - - - - - - 0.0
18/04:50pm 25.7 - 2.2 21 11.9 - - - - - - - 0.0
18/04:40pm 25.8 - 1.4 20 12.2 - - - - - - - 0.0
18/04:30pm 25.9 - 1.1 20 12.3 - - - - - - - 0.0
18/04:20pm 26.2 - 3.1 22 11.9 - - - - - - - 0.0
18/04:10pm 26.1 - 2.8 22 11.9 - - - - - - - 0.0
18/04:00pm 25.9 - 2.0 21 12.0 - - - - - - - 0.0
18/03:50pm 25.8 - 2.8 22 11.7 - - - - - - - 0.0
18/03:40pm 26.4 - 2.8 21 12.1 - - - - - - - 0.0
18/03:30pm 26.3 - 2.1 20 12.2 - - - - - - - 0.0
18/03:20pm 26.1 - 2.6 21 12.0 - - - - - - - 0.0
18/03:00pm 25.7 - 2.0 21 11.9 - - - - - - - 0.0
18/02:50pm 25.9 - 2.2 21 12.0 - - - - - - - 0.0
18/02:40pm 26.4 - 1.9 20 12.4 - - - - - - - 0.0
18/02:30pm 26.0 - 1.4 20 12.3 - - - - - - - 0.0
18/02:20pm 26.8 - 1.1 19 12.8 - - - - - - - 0.0
18/02:10pm 25.9 - 0.7 19 12.4 - - - - - - - 0.0
18/02:00pm 25.2 - 0.8 20 12.0 - - - - - - - 0.0
18/01:50pm 25.8 - 1.4 20 12.2 - - - - - - - 0.0
18/01:40pm 25.3 - 1.0 20 12.0 - - - - - - - 0.0
18/01:30pm 25.0 - 2.1 22 11.5 - - - - - - - 0.0
18/01:20pm 25.1 - 1.4 21 11.8 - - - - - - - 0.0
18/01:10pm 24.6 - 0.6 20 11.7 - - - - - - - 0.0
18/01:00pm 24.6 - 2.1 23 11.3 - - - - - - - 0.0
18/12:50pm 24.7 - 0.3 20 11.8 - - - - - - - 0.0

Other formats

Comma delimited format used in spreadsheet applications
http://www.bom.gov.au/fwo/IDN60801/IDN60801.99118.axf

JavaScript Object Notation format (JSON) in row-major order
http://www.bom.gov.au/fwo/IDN60801/IDN60801.99118.json

Data quality

Most of these data are generated automatically and are frequently updated. Quality checks on data are not normally performed. It is possible for incorrect values to appear. Refer to information at About Latest Weather Observations and please check the disclaimer before using these data.